createdAt,value
2018-10-21T00:01:43.271Z,7.40
2018-10-21T00:04:12.294Z,7.40
2018-10-21T00:06:41.594Z,7.40
2018-10-21T00:09:12.253Z,7.40
2018-10-21T00:11:41.474Z,7.20
2018-10-21T00:14:10.764Z,7.20
2018-10-21T00:16:40.014Z,7.20
2018-10-21T00:19:09.324Z,7.20
2018-10-21T00:21:38.681Z,7.20
2018-10-21T00:24:07.939Z,7.20
2018-10-21T00:26:37.294Z,7.10
2018-10-21T00:29:06.877Z,7.10
2018-10-21T00:31:36.035Z,7.10
2018-10-21T00:34:05.455Z,7.10
2018-10-21T00:36:34.644Z,7.00
2018-10-21T00:39:04.098Z,7.00
2018-10-21T00:41:33.234Z,7.10
2018-10-21T00:44:02.263Z,7.00
2018-10-21T00:46:31.434Z,7.10
2018-10-21T00:49:00.695Z,7.00
2018-10-21T00:51:29.763Z,7.00
2018-10-21T00:53:59.213Z,7.00
2018-10-21T00:56:28.403Z,6.90
2018-10-21T00:58:57.758Z,6.90
2018-10-21T01:01:26.992Z,6.90
2018-10-21T01:03:56.065Z,6.80
2018-10-21T01:06:25.252Z,6.80
2018-10-21T01:08:55.368Z,6.80
2018-10-21T01:11:24.359Z,6.70
2018-10-21T01:13:53.419Z,6.80
2018-10-21T01:16:22.653Z,6.80
2018-10-21T01:18:51.829Z,6.80
2018-10-21T01:21:20.916Z,6.80
2018-10-21T01:23:50.311Z,6.80
2018-10-21T01:26:19.628Z,6.80
2018-10-21T01:28:48.953Z,6.80
2018-10-21T01:31:17.973Z,6.80
2018-10-21T01:33:47.188Z,6.80
2018-10-21T01:36:16.431Z,6.80
2018-10-21T01:38:45.434Z,6.80
2018-10-21T01:41:14.547Z,6.80
2018-10-21T01:43:43.631Z,6.80
2018-10-21T01:46:12.707Z,6.70
2018-10-21T01:48:41.841Z,6.60
2018-10-21T01:51:11.075Z,6.60
2018-10-21T01:53:40.213Z,6.60
2018-10-21T01:56:09.338Z,6.60
2018-10-21T01:58:38.774Z,6.50
2018-10-21T02:01:07.944Z,6.50
2018-10-21T02:03:36.998Z,6.50
2018-10-21T02:06:06.398Z,6.50
2018-10-21T02:08:35.634Z,6.50
2018-10-21T02:11:04.781Z,6.60
2018-10-21T02:13:34.067Z,6.60
2018-10-21T02:16:03.190Z,6.50
2018-10-21T02:18:32.360Z,6.40
2018-10-21T02:21:07.731Z,6.40
2018-10-21T02:23:36.834Z,6.40
2018-10-21T02:26:05.950Z,6.40
2018-10-21T02:28:35.084Z,6.40
2018-10-21T02:31:04.164Z,6.30
2018-10-21T02:33:33.546Z,6.30
2018-10-21T02:36:02.728Z,6.30
2018-10-21T02:38:31.903Z,6.30
2018-10-21T02:41:22.133Z,6.30
2018-10-21T02:43:51.193Z,6.30
2018-10-21T02:46:21.264Z,6.30
2018-10-21T02:48:51.242Z,6.30
2018-10-21T02:51:20.324Z,6.30
2018-10-21T02:53:49.411Z,6.30
2018-10-21T02:56:18.474Z,6.20
2018-10-21T02:58:47.683Z,6.30
2018-10-21T03:01:17.012Z,6.30
2018-10-21T03:03:46.267Z,6.30
2018-10-21T03:06:15.846Z,6.20
2018-10-21T03:08:44.853Z,6.20
2018-10-21T03:11:13.933Z,6.10
2018-10-21T03:13:43.051Z,6.10
2018-10-21T03:16:12.395Z,6.00
2018-10-21T03:18:41.453Z,6.00
2018-10-21T03:21:10.888Z,5.90
2018-10-21T03:23:39.833Z,5.90
2018-10-21T03:26:09.165Z,5.90
2018-10-21T03:28:38.222Z,5.90
2018-10-21T03:31:07.352Z,5.90
2018-10-21T03:33:37.428Z,5.90
2018-10-21T03:36:06.497Z,6.00
2018-10-21T03:38:35.592Z,6.00
2018-10-21T03:41:04.713Z,5.90
2018-10-21T03:43:33.779Z,5.90
2018-10-21T03:46:02.920Z,5.90
2018-10-21T03:48:31.957Z,5.80
2018-10-21T03:51:01.521Z,5.80
2018-10-21T03:53:30.473Z,5.80
2018-10-21T03:55:59.739Z,5.80
2018-10-21T03:58:29.032Z,5.80
2018-10-21T04:00:58.278Z,5.80
2018-10-21T04:03:33.858Z,5.80
2018-10-21T04:06:03.654Z,5.70
2018-10-21T04:08:32.975Z,5.70
2018-10-21T04:11:02.217Z,5.70
2018-10-21T04:13:31.270Z,5.60
2018-10-21T04:16:00.766Z,5.60
2018-10-21T04:18:29.899Z,5.60
2018-10-21T04:20:59.079Z,5.50
2018-10-21T04:23:28.184Z,5.50
2018-10-21T04:25:57.276Z,5.50
2018-10-21T04:28:26.293Z,5.40
2018-10-21T04:30:55.313Z,5.40
2018-10-21T04:33:55.018Z,5.40
2018-10-21T04:36:25.882Z,5.30
2018-10-21T04:40:22.405Z,5.30
2018-10-21T04:42:51.897Z,5.30
2018-10-21T04:45:22.793Z,5.20
2018-10-21T04:47:51.818Z,5.20
2018-10-21T04:50:20.884Z,5.30
2018-10-21T04:52:49.987Z,5.30
2018-10-21T04:55:18.976Z,5.20
2018-10-21T04:57:48.275Z,5.30
2018-10-21T05:00:24.475Z,5.20
2018-10-21T05:02:53.547Z,5.20
2018-10-21T05:05:22.606Z,5.10
2018-10-21T05:07:51.735Z,5.10
2018-10-21T05:10:26.189Z,5.10
2018-10-21T05:12:55.238Z,5.00
2018-10-21T05:15:25.417Z,5.00
2018-10-21T05:17:54.799Z,5.00
2018-10-21T05:20:24.071Z,5.00
2018-10-21T05:22:53.142Z,5.00
2018-10-21T05:25:22.444Z,5.00
2018-10-21T05:27:51.466Z,5.00
2018-10-21T05:30:20.491Z,5.00
2018-10-21T05:32:49.712Z,5.00
2018-10-21T05:35:19.556Z,5.00
2018-10-21T05:37:48.650Z,5.00
2018-10-21T05:40:19.002Z,5.10
2018-10-21T05:42:48.540Z,5.10
2018-10-21T05:45:17.860Z,5.10
2018-10-21T05:47:47.070Z,5.10
2018-10-21T05:50:17.013Z,5.20
2018-10-21T05:52:46.104Z,5.10
2018-10-21T05:55:15.883Z,5.10
2018-10-21T05:57:45.110Z,5.10
2018-10-21T06:00:17.150Z,5.10
2018-10-21T06:02:46.385Z,5.10
2018-10-21T06:05:44.727Z,5.10
2018-10-21T06:08:13.875Z,5.10
2018-10-21T06:10:43.686Z,5.10
2018-10-21T06:13:13.129Z,5.10
2018-10-21T06:15:42.279Z,5.10
2018-10-21T06:18:22.056Z,5.20
2018-10-21T06:20:54.491Z,5.20
2018-10-21T06:23:23.534Z,5.20
2018-10-21T06:25:53.407Z,5.10
2018-10-21T06:28:23.351Z,5.20
2018-10-21T06:30:52.488Z,5.20
2018-10-21T06:33:21.773Z,5.20
2018-10-21T06:35:50.906Z,5.20
2018-10-21T06:38:19.901Z,5.20
2018-10-21T06:40:48.959Z,5.30
2018-10-21T06:43:18.264Z,5.30
2018-10-21T06:45:47.803Z,5.30
2018-10-21T06:48:16.774Z,5.20
2018-10-21T06:50:45.845Z,5.30
2018-10-21T06:53:14.889Z,5.30
2018-10-21T06:55:44.095Z,5.30
2018-10-21T06:58:13.123Z,5.30
2018-10-21T07:00:42.153Z,5.30
2018-10-21T07:03:11.344Z,5.30
2018-10-21T07:06:42.875Z,5.40
2018-10-21T07:09:12.027Z,5.40
2018-10-21T07:11:41.334Z,5.40
2018-10-21T07:14:10.349Z,5.40
2018-10-21T07:16:39.725Z,5.50
2018-10-21T07:19:08.582Z,5.50
2018-10-21T07:21:37.821Z,5.50
2018-10-21T07:24:06.953Z,5.60
2018-10-21T07:26:35.946Z,5.60
2018-10-21T07:29:05.698Z,5.60
2018-10-21T07:31:34.743Z,5.70
2018-10-21T07:34:04.116Z,5.80
2018-10-21T07:36:33.102Z,5.90
2018-10-21T07:39:02.583Z,6.00
2018-10-21T07:41:31.622Z,6.10
2018-10-21T07:44:00.792Z,6.20
2018-10-21T07:46:36.340Z,6.20
2018-10-21T07:49:06.395Z,6.20
2018-10-21T07:51:35.412Z,6.30
2018-10-21T07:54:04.585Z,6.30
2018-10-21T07:56:33.802Z,6.30
2018-10-21T07:59:02.893Z,6.40
2018-10-21T08:01:32.101Z,6.50
2018-10-21T08:04:02.345Z,6.50
2018-10-21T08:06:42.244Z,6.60
2018-10-21T08:09:12.311Z,6.70
2018-10-21T08:11:41.369Z,6.80
2018-10-21T08:14:10.585Z,6.80
2018-10-21T08:16:39.601Z,6.80
2018-10-21T08:19:08.820Z,6.90
2018-10-21T08:21:38.137Z,7.00
2018-10-21T08:24:08.076Z,7.10
2018-10-21T08:26:37.168Z,7.30
2018-10-21T08:29:06.456Z,7.40
2018-10-21T08:31:35.508Z,7.50
2018-10-21T08:34:04.689Z,7.60
2018-10-21T08:36:33.898Z,7.70
2018-10-21T08:39:03.411Z,7.90
2018-10-21T08:41:32.450Z,8.00
2018-10-21T08:44:01.936Z,8.10
2018-10-21T08:46:31.022Z,8.20
2018-10-21T08:49:00.191Z,8.40
2018-10-21T08:51:29.298Z,8.60
2018-10-21T08:53:58.585Z,8.70
2018-10-21T08:56:27.689Z,9.00
2018-10-21T08:58:57.145Z,9.10
2018-10-21T09:01:26.181Z,9.30
2018-10-21T09:03:55.221Z,9.50
2018-10-21T09:06:24.452Z,9.70
2018-10-21T09:08:53.614Z,10.00
2018-10-21T09:11:22.669Z,10.10
2018-10-21T09:13:51.983Z,10.30
2018-10-21T09:16:21.178Z,10.60
2018-10-21T09:18:50.373Z,10.80
2018-10-21T09:21:19.711Z,11.00
2018-10-21T09:23:49.043Z,11.20
2018-10-21T09:26:18.167Z,11.30
2018-10-21T09:28:47.659Z,11.60
2018-10-21T09:31:16.792Z,11.60
2018-10-21T09:33:45.940Z,12.00
2018-10-21T09:36:15.234Z,12.10
2018-10-21T09:38:44.325Z,12.10
2018-10-21T09:41:13.548Z,12.40
2018-10-21T09:43:42.719Z,12.70
2018-10-21T09:46:11.998Z,12.90
2018-10-21T09:48:41.122Z,13.10
2018-10-21T09:51:10.412Z,13.30
2018-10-21T09:53:39.795Z,13.80
2018-10-21T09:56:08.831Z,14.10
2018-10-21T09:58:37.985Z,14.20
2018-10-21T10:01:12.650Z,14.40
2018-10-21T10:03:41.715Z,14.50
2018-10-21T10:06:10.837Z,14.80
2018-10-21T10:08:40.088Z,15.20
2018-10-21T10:11:09.388Z,15.60
2018-10-21T10:13:38.457Z,16.00
2018-10-21T10:16:07.899Z,16.20
2018-10-21T10:18:37.110Z,16.50
2018-10-21T10:21:06.896Z,16.90
2018-10-21T10:23:36.165Z,17.20
2018-10-21T10:26:05.264Z,17.30
2018-10-21T10:28:34.435Z,17.50
2018-10-21T10:31:03.856Z,17.70
2018-10-21T10:33:32.890Z,17.90
2018-10-21T10:36:02.896Z,18.20
2018-10-21T10:38:32.076Z,18.20
2018-10-21T10:41:01.430Z,18.50
2018-10-21T10:43:30.518Z,18.80
2018-10-21T10:45:59.925Z,19.10
2018-10-21T10:48:28.994Z,19.10
2018-10-21T10:50:58.211Z,19.20
2018-10-21T10:53:27.331Z,19.20
2018-10-21T10:55:56.514Z,19.60
2018-10-21T10:58:25.554Z,19.70
2018-10-21T11:00:54.753Z,20.00
2018-10-21T11:03:23.892Z,20.40
2018-10-21T11:05:53.157Z,20.90
2018-10-21T11:08:22.323Z,21.10
2018-10-21T11:10:51.507Z,21.20
2018-10-21T11:13:20.653Z,21.30
2018-10-21T11:15:49.774Z,21.40
2018-10-21T11:18:19.048Z,21.40
2018-10-21T11:20:48.310Z,21.70
2018-10-21T11:23:17.619Z,21.90
2018-10-21T11:25:46.905Z,22.10
2018-10-21T11:28:15.961Z,22.30
2018-10-21T11:30:45.036Z,22.70
2018-10-21T11:33:14.278Z,22.70
2018-10-21T11:35:43.477Z,22.30
2018-10-21T11:38:12.929Z,22.60
2018-10-21T11:40:42.078Z,23.00
2018-10-21T11:43:11.225Z,23.40
2018-10-21T11:45:40.433Z,23.70
2018-10-21T11:48:09.535Z,24.30
2018-10-21T11:50:38.762Z,24.60
2018-10-21T11:53:08.035Z,24.90
2018-10-21T11:55:39.979Z,24.90
2018-10-21T11:58:11.335Z,24.80
2018-10-21T12:00:40.863Z,24.90
2018-10-21T12:03:10.832Z,25.20
2018-10-21T12:05:40.753Z,25.80
2018-10-21T12:08:10.087Z,26.20
2018-10-21T12:10:39.320Z,26.40
2018-10-21T12:13:08.763Z,26.40
2018-10-21T12:15:37.959Z,26.50
2018-10-21T12:18:07.723Z,26.90
2018-10-21T12:20:37.220Z,27.10
2018-10-21T12:23:06.618Z,27.30
2018-10-21T12:25:35.743Z,27.10
2018-10-21T12:28:04.919Z,27.00
2018-10-21T12:30:34.085Z,27.10
2018-10-21T12:33:03.171Z,26.90
2018-10-21T12:35:32.243Z,27.10
2018-10-21T12:38:01.329Z,27.40
2018-10-21T12:40:30.454Z,27.60
2018-10-21T12:42:59.669Z,27.60
2018-10-21T12:45:28.928Z,27.80
2018-10-21T12:47:57.918Z,27.80
2018-10-21T12:50:27.070Z,27.90
2018-10-21T12:52:56.193Z,28.30
2018-10-21T12:55:25.526Z,28.30
2018-10-21T12:57:54.817Z,28.40
2018-10-21T13:00:24.077Z,28.50
2018-10-21T13:02:54.036Z,28.70
2018-10-21T13:05:23.277Z,29.00
2018-10-21T13:07:53.210Z,29.30
2018-10-21T13:10:22.255Z,29.10
2018-10-21T13:12:51.554Z,29.50
2018-10-21T13:15:20.874Z,29.50
2018-10-21T13:17:50.054Z,29.40
2018-10-21T13:20:19.511Z,29.30
2018-10-21T13:22:48.653Z,29.30
2018-10-21T13:25:17.812Z,29.20
2018-10-21T13:27:47.132Z,29.30
2018-10-21T13:30:16.401Z,29.90
2018-10-21T13:32:45.650Z,30.00
2018-10-21T13:35:14.715Z,30.20
2018-10-21T13:37:43.853Z,30.00
2018-10-21T13:40:13.120Z,30.10
2018-10-21T13:42:42.198Z,30.30
2018-10-21T13:45:11.413Z,30.40
2018-10-21T13:47:41.438Z,30.20
2018-10-21T13:50:10.529Z,29.50
2018-10-21T13:52:39.714Z,29.00
2018-10-21T13:55:09.439Z,28.00
2018-10-21T13:57:38.570Z,26.20
2018-10-21T14:00:08.832Z,25.10
2018-10-21T14:02:38.150Z,24.20
2018-10-21T14:05:07.960Z,23.50
2018-10-21T14:07:37.140Z,23.00
2018-10-21T14:10:07.022Z,22.30
2018-10-21T14:12:36.330Z,21.80
2018-10-21T14:15:06.635Z,21.40
2018-10-21T14:17:35.786Z,21.10
2018-10-21T14:20:05.958Z,20.90
2018-10-21T14:22:35.114Z,21.20
2018-10-21T14:25:04.468Z,21.80
2018-10-21T14:27:33.599Z,22.00
2018-10-21T14:30:02.922Z,21.90
2018-10-21T14:32:31.972Z,21.80
2018-10-21T14:35:01.271Z,21.50
2018-10-21T14:37:30.366Z,21.10
2018-10-21T14:40:07.195Z,20.70
2018-10-21T14:42:36.348Z,20.30
2018-10-21T14:45:07.372Z,20.00
2018-10-21T14:47:36.859Z,19.80
2018-10-21T14:50:07.020Z,19.80
2018-10-21T14:52:36.932Z,19.90
2018-10-21T14:55:06.899Z,19.90
2018-10-21T14:57:36.410Z,19.80
2018-10-21T15:00:07.968Z,19.70
2018-10-21T15:02:37.320Z,19.50
2018-10-21T15:05:09.572Z,19.30
2018-10-21T15:07:39.197Z,19.20
2018-10-21T15:10:09.699Z,19.10
2018-10-21T15:12:39.114Z,18.90
2018-10-21T15:15:09.288Z,18.90
2018-10-21T15:17:39.296Z,19.00
2018-10-21T15:20:10.647Z,18.90
2018-10-21T15:22:39.905Z,18.70
2018-10-21T15:25:11.416Z,18.50
2018-10-21T15:27:40.938Z,18.30
2018-10-21T15:30:11.029Z,18.20
2018-10-21T15:32:41.412Z,18.10
2018-10-21T15:35:10.704Z,18.00
2018-10-21T15:37:40.096Z,17.80
2018-10-21T15:40:10.520Z,17.80
2018-10-21T15:42:39.671Z,17.70
2018-10-21T15:45:11.131Z,17.60
2018-10-21T15:47:40.397Z,17.60
2018-10-21T15:50:09.975Z,17.50
2018-10-21T15:52:39.256Z,17.40
2018-10-21T15:55:09.417Z,17.30
2018-10-21T15:57:38.704Z,17.20
2018-10-21T16:00:10.225Z,17.10
2018-10-21T16:02:39.613Z,17.10
2018-10-21T16:05:09.724Z,17.00
2018-10-21T16:07:38.931Z,16.90
2018-10-21T16:10:09.079Z,16.90
2018-10-21T16:12:38.467Z,16.80
2018-10-21T16:15:11.739Z,16.80
2018-10-21T16:17:41.377Z,16.70
2018-10-21T16:20:10.626Z,16.60
2018-10-21T16:22:46.314Z,16.50
2018-10-21T16:25:16.149Z,16.40
2018-10-21T16:27:45.262Z,16.30
2018-10-21T16:30:16.530Z,16.20
2018-10-21T16:32:45.871Z,16.10
2018-10-21T16:35:15.236Z,16.00
2018-10-21T16:37:44.473Z,15.90
2018-10-21T16:40:15.276Z,15.70
2018-10-21T16:42:44.415Z,15.50
2018-10-21T16:45:14.745Z,15.40
2018-10-21T16:47:43.887Z,15.30
2018-10-21T16:50:15.105Z,15.10
2018-10-21T16:52:45.049Z,14.90
2018-10-21T16:55:15.144Z,14.80
2018-10-21T16:57:44.231Z,14.60
2018-10-21T17:00:15.241Z,14.50
2018-10-21T17:02:44.516Z,14.40
2018-10-21T17:05:13.906Z,14.30
2018-10-21T17:07:42.892Z,14.20
2018-10-21T17:10:13.106Z,14.20
2018-10-21T17:12:41.773Z,14.10
2018-10-21T17:15:11.794Z,14.10
2018-10-21T17:17:41.911Z,14.00
2018-10-21T17:20:13.920Z,14.00
2018-10-21T17:22:43.713Z,14.00
2018-10-21T17:25:14.157Z,13.90
2018-10-21T17:27:43.330Z,13.90
2018-10-21T17:30:16.391Z,13.90
2018-10-21T17:32:46.117Z,13.90
2018-10-21T17:35:15.314Z,14.00
2018-10-21T17:37:44.730Z,14.00
2018-10-21T17:40:14.514Z,14.00
2018-10-21T17:42:43.758Z,13.90
2018-10-21T17:45:14.620Z,13.80
2018-10-21T17:47:44.348Z,13.70
2018-10-21T17:50:14.804Z,13.60
2018-10-21T17:52:44.700Z,13.50
2018-10-21T17:55:14.667Z,13.50
2018-10-21T17:57:44.042Z,13.50
2018-10-21T18:00:14.445Z,13.40
2018-10-21T18:02:44.009Z,13.40
2018-10-21T18:05:14.480Z,13.40
2018-10-21T18:07:44.081Z,13.30
2018-10-21T18:10:13.896Z,13.30
2018-10-21T18:12:43.354Z,13.20
2018-10-21T18:15:13.229Z,13.20
2018-10-21T18:17:43.216Z,13.10
2018-10-21T18:20:13.591Z,13.00
2018-10-21T18:22:43.267Z,13.00
2018-10-21T18:25:13.162Z,12.90
2018-10-21T18:27:42.959Z,12.90
2018-10-21T18:30:13.728Z,12.80
2018-10-21T18:32:43.411Z,12.70
2018-10-21T18:35:14.677Z,12.70
2018-10-21T18:37:44.258Z,12.60
2018-10-21T18:40:13.989Z,12.50
2018-10-21T18:42:43.714Z,12.50
2018-10-21T18:45:14.698Z,12.50
2018-10-21T18:47:44.751Z,12.40
2018-10-21T18:50:15.953Z,12.30
2018-10-21T18:52:45.592Z,12.30
2018-10-21T18:55:15.371Z,12.20
2018-10-21T18:57:44.912Z,12.20
2018-10-21T19:00:16.991Z,12.10
2018-10-21T19:02:46.610Z,12.10
2018-10-21T19:05:22.572Z,12.00
2018-10-21T19:07:52.082Z,11.90
2018-10-21T19:10:21.707Z,11.80
2018-10-21T19:13:00.051Z,11.70
2018-10-21T19:15:21.002Z,11.70
2018-10-21T19:17:50.599Z,11.70
2018-10-21T19:20:21.255Z,11.70
2018-10-21T19:22:50.787Z,11.70
2018-10-21T19:25:20.459Z,11.60
2018-10-21T19:27:49.638Z,11.60
2018-10-21T19:30:19.138Z,11.60
2018-10-21T19:32:48.444Z,11.60
2018-10-21T19:35:17.858Z,11.50
2018-10-21T19:37:47.213Z,11.50
2018-10-21T19:40:17.267Z,11.50
2018-10-21T19:42:46.784Z,11.40
2018-10-21T19:45:16.639Z,11.40
2018-10-21T19:47:45.930Z,11.30
2018-10-21T19:50:16.504Z,11.30
2018-10-21T19:52:46.214Z,11.30
2018-10-21T19:55:15.830Z,11.20
2018-10-21T19:57:45.125Z,11.20
2018-10-21T20:00:15.801Z,11.10
2018-10-21T20:02:45.683Z,11.00
2018-10-21T20:05:15.401Z,11.00
2018-10-21T20:07:44.746Z,10.90
2018-10-21T20:10:15.079Z,10.80
2018-10-21T20:12:44.093Z,10.80
2018-10-21T20:15:13.820Z,10.80
2018-10-21T20:17:42.951Z,10.70
2018-10-21T20:20:12.733Z,10.70
2018-10-21T20:22:41.856Z,10.60
2018-10-21T20:25:12.341Z,10.60
2018-10-21T20:27:41.349Z,10.50
2018-10-21T20:30:12.180Z,10.50
2018-10-21T20:32:41.632Z,10.40
2018-10-21T20:35:11.950Z,10.30
2018-10-21T20:37:41.040Z,10.30
2018-10-21T20:40:10.861Z,10.30
2018-10-21T20:42:39.869Z,10.30
2018-10-21T20:45:10.868Z,10.30
2018-10-21T20:47:40.132Z,10.20
2018-10-21T20:50:09.253Z,10.10
2018-10-21T20:52:38.331Z,10.10
2018-10-21T20:55:07.890Z,10.00
2018-10-21T20:57:37.790Z,9.90
2018-10-21T21:00:06.964Z,9.90
2018-10-21T21:02:36.070Z,9.90
2018-10-21T21:05:06.170Z,9.90
2018-10-21T21:07:35.344Z,9.80
2018-10-21T21:10:05.320Z,9.80
2018-10-21T21:12:34.486Z,9.80
2018-10-21T21:15:03.633Z,9.70
2018-10-21T21:17:32.884Z,9.70
2018-10-21T21:20:02.255Z,9.70
2018-10-21T21:22:31.466Z,9.70
2018-10-21T21:25:00.569Z,9.60
2018-10-21T21:27:29.834Z,9.60
2018-10-21T21:29:58.895Z,9.60
2018-10-21T21:32:27.994Z,9.50
2018-10-21T21:34:57.036Z,9.50
2018-10-21T21:37:26.089Z,9.40
2018-10-21T21:39:55.351Z,9.30
2018-10-21T21:42:24.358Z,9.30
2018-10-21T21:44:53.361Z,9.30
2018-10-21T21:47:22.414Z,9.30
2018-10-21T21:49:51.394Z,9.30
2018-10-21T21:52:20.640Z,9.30
2018-10-21T21:54:49.632Z,9.30
2018-10-21T21:57:19.118Z,9.30
2018-10-21T21:59:48.236Z,9.20
2018-10-21T22:02:17.407Z,9.30
2018-10-21T22:04:46.437Z,9.30
2018-10-21T22:07:15.596Z,9.20
2018-10-21T22:09:44.934Z,9.20
2018-10-21T22:12:14.903Z,9.20
2018-10-21T22:14:44.825Z,9.10
2018-10-21T22:17:13.996Z,9.10
2018-10-21T22:19:43.087Z,9.20
2018-10-21T22:22:12.610Z,9.20
2018-10-21T22:24:41.604Z,9.20
2018-10-21T22:27:10.658Z,9.10
2018-10-21T22:29:39.919Z,9.10
2018-10-21T22:32:09.015Z,9.00
2018-10-21T22:34:38.396Z,8.90
2018-10-21T22:37:07.589Z,8.90
2018-10-21T22:39:36.693Z,8.80
2018-10-21T22:42:06.112Z,8.80
2018-10-21T22:44:35.643Z,8.80
2018-10-21T22:47:04.729Z,8.80
2018-10-21T22:49:34.040Z,8.70
2018-10-21T22:52:03.200Z,8.70
2018-10-21T22:54:32.206Z,8.60
2018-10-21T22:57:01.433Z,8.60
2018-10-21T22:59:30.613Z,8.50
2018-10-21T23:01:59.805Z,8.40
2018-10-21T23:04:29.077Z,8.40
2018-10-21T23:06:58.174Z,8.30
2018-10-21T23:09:27.132Z,8.40
2018-10-21T23:11:56.219Z,8.40
2018-10-21T23:14:25.243Z,8.40
2018-10-21T23:16:54.367Z,8.50
2018-10-21T23:19:42.333Z,8.50
2018-10-21T23:22:11.645Z,8.50
2018-10-21T23:24:41.103Z,8.50
2018-10-21T23:27:11.094Z,8.50
2018-10-21T23:29:40.552Z,8.60
2018-10-21T23:32:09.606Z,8.60
2018-10-21T23:34:38.792Z,8.60
2018-10-21T23:37:08.009Z,8.60
2018-10-21T23:39:37.027Z,8.50
2018-10-21T23:42:06.328Z,8.50
2018-10-21T23:44:35.462Z,8.50
2018-10-21T23:47:04.583Z,8.50
2018-10-21T23:49:33.830Z,8.50
2018-10-21T23:52:02.982Z,8.40
2018-10-21T23:54:32.053Z,8.50
2018-10-21T23:57:03.516Z,8.40
2018-10-21T23:59:32.664Z,8.40
